Time;durP1;ratioP1;P1;durP2;ratioP2;P2;SDS_P1;SDS_P2;PMS_P1;PMS_P2;Temp;Humidity;BMP_temperature;BMP_pressure;BME280_temperature;BME280_humidity;BME280_pressure;Samples;Min_cycle;Max_cycle;Signal;HPM_P1;HPM_P2
2022/07/08 00:02:06;;;;;;;7.65;1.70;;;16.30;99.90;;;;;;5014693;28;20252;-81
2022/07/08 00:04:32;;;;;;;2.97;1.35;;;16.30;99.90;;;;;;5029787;28;20176;-83
2022/07/08 00:06:58;;;;;;;10.75;1.95;;;16.30;99.90;;;;;;5014609;28;20183;-81
2022/07/08 00:09:26;;;;;;;17.55;2.13;;;16.30;99.90;;;;;;5014448;28;20190;-81
2022/07/08 00:11:52;;;;;;;12.98;1.63;;;16.30;99.90;;;;;;5014502;28;20179;-83
2022/07/08 00:14:18;;;;;;;5.38;1.63;;;16.30;99.90;;;;;;5014103;28;20256;-82
2022/07/08 00:16:44;;;;;;;7.35;1.30;;;16.30;99.90;;;;;;5014072;28;20310;-81
2022/07/08 00:19:14;;;;;;;14.27;2.40;;;16.40;99.90;;;;;;5013908;28;20195;-83
2022/07/08 00:21:44;;;;;;;7.70;1.63;;;16.50;99.90;;;;;;5014439;28;20172;-82
2022/07/08 00:24:14;;;;;;;19.80;1.85;;;16.20;99.90;;;;;;5014150;28;20707;-80
2022/07/08 00:26:40;;;;;;;8.68;1.60;;;16.00;99.90;;;;;;5014020;28;20208;-81
2022/07/08 00:29:06;;;;;;;4.28;1.55;;;16.00;99.90;;;;;;5028916;28;20181;-80
2022/07/08 00:31:32;;;;;;;5.68;1.88;;;15.90;99.90;;;;;;5013960;28;20172;-82
2022/07/08 00:33:58;;;;;;;5.10;1.33;;;15.90;99.90;;;;;;5013933;28;20695;-83
2022/07/08 00:36:24;;;;;;;7.22;1.75;;;15.80;99.90;;;;;;5013932;28;20165;-79
2022/07/08 00:38:50;;;;;;;9.32;2.45;;;15.80;99.90;;;;;;5013804;28;20215;-81
2022/07/08 00:41:16;;;;;;;8.85;1.45;;;15.90;99.90;;;;;;5013782;28;20173;-81
2022/07/08 00:43:44;;;;;;;4.95;1.52;;;15.80;99.90;;;;;;5013914;28;20164;-82
2022/07/08 00:46:11;;;;;;;8.43;1.60;;;15.80;99.90;;;;;;5013719;28;20206;-81
2022/07/08 00:48:37;;;;;;;8.13;1.80;;;15.80;99.90;;;;;;5013568;28;20204;-80
2022/07/08 00:51:09;;;;;;;12.05;1.45;;;15.80;99.90;;;;;;5013366;28;20176;-83
2022/07/08 00:53:38;;;;;;;5.07;1.52;;;15.70;99.90;;;;;;5014054;28;20200;-82
2022/07/08 00:56:04;;;;;;;5.55;1.48;;;15.90;99.90;;;;;;5014103;28;20163;-80
2022/07/08 00:58:31;;;;;;;12.38;1.92;;;15.80;99.90;;;;;;5013597;28;20168;-82
2022/07/08 01:00:57;;;;;;;8.75;2.42;;;15.60;99.90;;;;;;5013410;28;20175;-82
2022/07/08 01:03:22;;;;;;;6.35;1.80;;;15.50;99.90;;;;;;5013404;28;20625;-82
2022/07/08 01:05:48;;;;;;;6.93;1.73;;;15.30;99.90;;;;;;5013378;28;20692;-81
2022/07/08 01:08:14;;;;;;;5.25;1.58;;;15.30;99.90;;;;;;5013549;28;20169;-80
2022/07/08 01:10:40;;;;;;;6.97;1.77;;;15.30;99.90;;;;;;5013465;28;20185;-79
2022/07/08 01:13:06;;;;;;;6.65;2.22;;;15.30;99.90;;;;;;5013451;28;20171;-81
2022/07/08 01:15:33;;;;;;;7.10;2.13;;;15.40;99.90;;;;;;5013170;28;20184;-80
2022/07/08 01:17:59;;;;;;;7.40;1.52;;;15.40;99.90;;;;;;5013658;28;20164;-82
2022/07/08 01:20:25;;;;;;;7.43;2.15;;;15.40;99.90;;;;;;5013040;28;20188;-79
2022/07/08 01:22:51;;;;;;;5.63;2.08;;;15.30;99.90;;;;;;5013081;28;20161;-81
2022/07/08 01:25:17;;;;;;;5.20;1.58;;;15.30;99.90;;;;;;5012882;28;20231;-82
2022/07/08 01:27:43;;;;;;;9.82;1.55;;;15.40;99.90;;;;;;5013312;28;20247;-82
2022/07/08 01:30:10;;;;;;;4.57;1.55;;;15.30;99.90;;;;;;5013157;28;20268;-81
2022/07/08 01:32:37;;;;;;;7.20;2.10;;;15.20;99.90;;;;;;5013067;28;20196;-82
2022/07/08 01:35:04;;;;;;;5.75;1.52;;;15.40;99.90;;;;;;5012938;28;20165;-79
2022/07/08 01:37:30;;;;;;;9.48;2.30;;;15.30;99.90;;;;;;5013035;28;20615;-80
2022/07/08 01:39:56;;;;;;;7.07;2.42;;;15.20;99.90;;;;;;5012838;28;20238;-81
2022/07/08 01:42:21;;;;;;;14.45;1.88;;;15.20;99.90;;;;;;5012859;28;20172;-82
2022/07/08 01:44:47;;;;;;;7.07;2.05;;;15.20;99.90;;;;;;5012350;28;20173;-80
2022/07/08 01:47:13;;;;;;;3.65;1.48;;;15.30;99.90;;;;;;5012587;28;20164;-79
2022/07/08 01:49:39;;;;;;;9.90;1.88;;;15.30;99.90;;;;;;5012739;28;20184;-80
2022/07/08 01:52:06;;;;;;;7.70;1.70;;;15.10;99.90;;;;;;5015382;28;20228;-82
2022/07/08 01:54:32;;;;;;;6.55;1.88;;;15.30;99.90;;;;;;5024927;28;20173;-79
2022/07/08 01:57:16;;;;;;;8.80;1.85;;;15.30;99.90;;;;;;5031701;28;20192;-78
2022/07/08 01:59:42;;;;;;;4.25;1.80;;;15.20;99.90;;;;;;5012849;28;20180;-80
2022/07/08 02:02:08;;;;;;;9.68;1.85;;;15.20;99.90;;;;;;5015861;28;20176;-80
2022/07/08 02:04:33;;;;;;;7.55;2.08;;;15.30;99.90;;;;;;5016813;28;20161;-81
2022/07/08 02:06:59;;;;;;;12.10;1.58;;;15.10;99.90;;;;;;5016848;28;20171;-80
2022/07/08 02:09:25;;;;;;;7.35;2.25;;;15.10;99.90;;;;;;5016323;28;20623;-79
2022/07/08 02:14:34;;;;;;;12.20;1.80;;;14.90;99.90;;;;;;5016322;28;20262;-81
2022/07/08 02:17:00;;;;;;;7.43;1.85;;;14.80;99.90;;;;;;5016653;28;20165;-81
2022/07/08 02:19:26;;;;;;;7.65;2.13;;;14.80;99.90;;;;;;5016454;28;20756;-82
2022/07/08 02:21:51;;;;;;;5.55;1.70;;;14.70;99.90;;;;;;5016270;28;20631;-82
2022/07/08 02:24:17;;;;;;;9.07;1.90;;;14.50;99.90;;;;;;5016283;28;20176;-82
2022/07/08 02:26:43;;;;;;;6.63;2.10;;;14.40;99.90;;;;;;5016040;28;20267;-82
2022/07/08 02:29:08;;;;;;;6.68;1.83;;;14.50;99.90;;;;;;5016225;28;20181;-79
2022/07/08 02:31:35;;;;;;;7.60;2.38;;;14.40;99.90;;;;;;5016432;28;20222;-80
2022/07/08 02:34:01;;;;;;;4.93;1.83;;;14.40;99.90;;;;;;5016070;28;20240;-81
2022/07/08 02:36:26;;;;;;;7.03;2.17;;;14.50;99.90;;;;;;5031508;28;20582;-81
2022/07/08 02:38:52;;;;;;;4.55;1.83;;;14.30;99.90;;;;;;5015937;28;20322;-81
2022/07/08 02:41:18;;;;;;;15.18;2.28;;;14.20;99.90;;;;;;5016143;28;20684;-83
2022/07/08 02:43:44;;;;;;;9.05;1.70;;;14.10;99.90;;;;;;5016298;28;20179;-82
2022/07/08 02:46:09;;;;;;;8.82;2.15;;;14.20;99.90;;;;;;5015579;28;20239;-82
2022/07/08 02:48:35;;;;;;;6.00;1.70;;;14.30;99.90;;;;;;5015808;28;20621;-82
2022/07/08 02:51:02;;;;;;;5.70;1.92;;;14.20;99.90;;;;;;5014433;28;20168;-82
2022/07/08 02:53:27;;;;;;;3.70;1.52;;;14.20;99.90;;;;;;5016115;28;20168;-81
2022/07/08 02:55:53;;;;;;;8.40;1.92;;;14.30;99.90;;;;;;5015875;28;20644;-82
2022/07/08 02:58:19;;;;;;;4.57;2.03;;;14.20;99.90;;;;;;5015709;28;20168;-82
2022/07/08 03:00:44;;;;;;;9.63;1.75;;;14.30;99.90;;;;;;5016006;28;20674;-82
2022/07/08 03:03:10;;;;;;;7.70;1.70;;;14.30;99.90;;;;;;5015861;28;20251;-82
2022/07/08 03:05:36;;;;;;;9.75;1.83;;;14.40;99.90;;;;;;5014366;28;20212;-80
2022/07/08 03:08:02;;;;;;;6.40;1.98;;;14.40;99.90;;;;;;5014911;28;20811;-82
2022/07/08 03:10:27;;;;;;;12.93;2.28;;;14.30;99.90;;;;;;5014984;28;20196;-83
2022/07/08 03:12:53;;;;;;;6.95;1.70;;;14.30;99.90;;;;;;5015162;28;20165;-81
2022/07/08 03:15:19;;;;;;;7.05;2.10;;;14.30;99.90;;;;;;5015536;28;20637;-83
2022/07/08 03:17:44;;;;;;;6.10;2.05;;;14.30;99.90;;;;;;5015738;28;20234;-80
2022/07/08 03:20:10;;;;;;;10.07;3.17;;;14.40;99.90;;;;;;5015411;28;20181;-83
2022/07/08 03:22:35;;;;;;;6.43;2.00;;;14.40;99.90;;;;;;5015702;28;20189;-81
2022/07/08 03:25:01;;;;;;;18.25;2.95;;;14.30;99.90;;;;;;5015330;28;20207;-82
2022/07/08 03:27:27;;;;;;;15.80;2.00;;;14.30;99.90;;;;;;5015676;28;20588;-82
2022/07/08 03:29:52;;;;;;;6.55;2.08;;;14.30;99.90;;;;;;5015066;28;20646;-82
2022/07/08 03:32:18;;;;;;;6.28;1.67;;;14.30;99.90;;;;;;5015531;28;20169;-81
2022/07/08 03:34:43;;;;;;;14.68;2.28;;;14.20;99.90;;;;;;5015243;28;20164;-82
2022/07/08 03:37:09;;;;;;;9.55;1.98;;;13.90;99.90;;;;;;5015011;28;20569;-81
2022/07/08 03:39:35;;;;;;;5.82;2.03;;;13.90;99.90;;;;;;5015401;28;20822;-83
2022/07/08 03:42:01;;;;;;;7.30;1.75;;;13.90;99.90;;;;;;5015114;28;20230;-80
2022/07/08 03:44:27;;;;;;;8.15;2.10;;;14.00;99.90;;;;;;5014816;28;20195;-82
2022/07/08 03:46:52;;;;;;;10.73;1.83;;;13.90;99.90;;;;;;5015076;28;20673;-81
2022/07/08 03:49:18;;;;;;;5.28;1.65;;;13.90;99.90;;;;;;5014654;28;20192;-81
2022/07/08 03:51:44;;;;;;;14.48;3.00;;;13.70;99.90;;;;;;5014952;28;20587;-82
2022/07/08 03:54:09;;;;;;;6.32;1.88;;;13.60;99.90;;;;;;5014567;28;20175;-83
2022/07/08 03:56:35;;;;;;;7.03;2.13;;;13.70;99.90;;;;;;5014604;28;20622;-80
2022/07/08 03:59:01;;;;;;;6.43;1.85;;;13.70;99.90;;;;;;5014674;28;20192;-82
2022/07/08 04:01:27;;;;;;;13.65;2.33;;;13.70;99.90;;;;;;5015821;28;20196;-81
2022/07/08 04:03:53;;;;;;;7.88;2.00;;;13.90;99.90;;;;;;5019182;28;20648;-80
2022/07/08 04:06:18;;;;;;;11.63;3.78;;;14.20;99.90;;;;;;5036965;28;20211;-79
2022/07/08 04:08:44;;;;;;;10.38;2.05;;;14.30;99.90;;;;;;5024663;28;20188;-81
2022/07/08 04:11:10;;;;;;;6.57;2.05;;;14.50;99.90;;;;;;5014535;28;20169;-80
2022/07/08 04:13:37;;;;;;;12.68;2.42;;;14.60;99.90;;;;;;5014848;28;20164;-82
2022/07/08 04:16:05;;;;;;;4.30;2.58;;;14.90;99.90;;;;;;5013024;28;20660;-81
2022/07/08 04:18:31;;;;;;;7.10;2.10;;;15.00;99.90;;;;;;5014617;28;20203;-80
2022/07/08 04:20:57;;;;;;;13.60;3.05;;;15.20;99.90;;;;;;5014366;28;20175;-82
2022/07/08 04:23:23;;;;;;;8.05;2.28;;;15.50;99.90;;;;;;5014323;28;20168;-82
2022/07/08 04:25:49;;;;;;;2.55;1.75;;;15.80;99.90;;;;;;5013058;28;20607;-81
2022/07/08 04:28:14;;;;;;;6.57;1.80;;;15.90;99.90;;;;;;5014392;28;20172;-81
2022/07/08 04:30:40;;;;;;;3.60;1.83;;;15.90;99.90;;;;;;5014257;28;20620;-82
2022/07/08 04:33:06;;;;;;;12.25;2.10;;;16.00;99.90;;;;;;5014138;28;20298;-81
2022/07/08 04:35:32;;;;;;;6.07;2.50;;;15.70;99.90;;;;;;5014180;28;20171;-82
2022/07/08 04:37:57;;;;;;;5.38;1.95;;;15.80;99.90;;;;;;5014154;28;20174;-82
2022/07/08 04:40:23;;;;;;;16.38;2.30;;;15.70;99.90;;;;;;5014145;28;20192;-82
2022/07/08 04:42:49;;;;;;;22.30;3.08;;;15.70;99.90;;;;;;5014160;28;20175;-82
2022/07/08 04:45:14;;;;;;;3.95;2.35;;;15.70;99.90;;;;;;5013782;28;20565;-79
2022/07/08 04:47:40;;;;;;;10.10;2.50;;;15.50;99.90;;;;;;5014456;28;20572;-82
2022/07/08 04:50:06;;;;;;;5.93;2.55;;;15.30;99.90;;;;;;5014144;28;20271;-82
2022/07/08 04:52:31;;;;;;;5.18;2.35;;;15.30;99.90;;;;;;5013877;28;20251;-81
2022/07/08 04:54:57;;;;;;;24.30;2.78;;;15.50;99.90;;;;;;5013830;28;20204;-80
2022/07/08 04:57:23;;;;;;;8.98;2.22;;;15.50;99.90;;;;;;5013661;28;20652;-80
2022/07/08 04:59:48;;;;;;;4.32;2.40;;;15.60;99.90;;;;;;5013910;28;20204;-82
2022/07/08 05:02:14;;;;;;;14.52;3.35;;;15.50;99.90;;;;;;5013812;28;20643;-82
2022/07/08 05:04:41;;;;;;;12.68;2.58;;;15.50;99.90;;;;;;5013287;28;20183;-82
2022/07/08 05:07:06;;;;;;;12.23;2.92;;;15.50;99.90;;;;;;5013839;28;20251;-79
2022/07/08 05:09:32;;;;;;;13.23;2.97;;;15.70;99.90;;;;;;5013603;28;20635;-80
2022/07/08 05:11:57;;;;;;;7.65;2.85;;;15.70;99.90;;;;;;5013492;28;20581;-82
2022/07/08 05:14:23;;;;;;;12.30;3.58;;;15.70;99.90;;;;;;5028880;28;20274;-82
2022/07/08 05:16:49;;;;;;;13.48;4.72;;;15.90;99.90;;;;;;5013258;28;20656;-82
2022/07/08 05:19:14;;;;;;;6.63;3.47;;;16.10;99.90;;;;;;5013232;28;20668;-81
2022/07/08 05:21:40;;;;;;;19.00;4.38;;;16.10;99.90;;;;;;5013292;28;20173;-81
2022/07/08 05:24:07;;;;;;;13.90;3.65;;;16.30;99.90;;;;;;5013251;28;20173;-82
2022/07/08 05:26:33;;;;;;;14.80;4.03;;;16.60;99.90;;;;;;5012870;28;20206;-80
2022/07/08 05:29:00;;;;;;;14.98;3.40;;;16.60;99.90;;;;;;5012981;28;20191;-82
2022/07/08 05:31:26;;;;;;;12.13;3.08;;;16.50;99.90;;;;;;5013159;28;20171;-79
2022/07/08 05:33:51;;;;;;;10.32;3.25;;;16.60;99.90;;;;;;5028475;28;20168;-81
2022/07/08 05:36:17;;;;;;;11.55;3.20;;;16.60;99.90;;;;;;5012827;28;20164;-82
2022/07/08 05:38:43;;;;;;;9.55;2.58;;;16.60;99.90;;;;;;5013233;28;20187;-81
2022/07/08 05:41:08;;;;;;;13.45;3.05;;;16.50;99.90;;;;;;5013505;28;20640;-81
2022/07/08 05:43:34;;;;;;;17.15;3.40;;;16.50;99.90;;;;;;5013083;28;20170;-80
2022/07/08 05:46:00;;;;;;;21.98;3.00;;;16.60;99.90;;;;;;5012883;28;20201;-82
2022/07/08 05:48:28;;;;;;;16.25;3.28;;;16.50;99.90;;;;;;5011475;28;20176;-86
2022/07/08 05:50:53;;;;;;;7.60;3.28;;;16.80;99.90;;;;;;5013908;28;20164;-85
2022/07/08 05:53:19;;;;;;;11.90;2.60;;;16.80;99.90;;;;;;5029043;28;20587;-83
2022/07/08 05:55:45;;;;;;;6.03;2.60;;;17.00;99.90;;;;;;5013751;28;20177;-82
2022/07/08 05:58:10;;;;;;;17.00;3.38;;;17.00;99.90;;;;;;5013637;28;20169;-87
2022/07/08 06:00:36;;;;;;;9.85;3.42;;;17.10;99.90;;;;;;5013699;28;20645;-83
2022/07/08 06:03:05;;;;;;;16.95;2.90;;;17.10;99.90;;;;;;5014071;28;20169;-87
2022/07/08 06:05:34;;;;;;;14.30;2.83;;;17.00;99.90;;;;;;5029573;28;20208;-86
2022/07/08 06:07:59;;;;;;;13.55;3.58;;;16.90;99.90;;;;;;5013729;28;20248;-87
2022/07/08 06:10:28;;;;;;;9.80;2.70;;;17.10;99.90;;;;;;5012920;28;20223;-88
2022/07/08 06:12:54;;;;;;;15.93;2.40;;;17.10;99.90;;;;;;5029311;28;20180;-90
2022/07/08 06:15:20;;;;;;;23.33;2.80;;;17.30;99.90;;;;;;5028763;28;20184;-83
2022/07/08 06:17:46;;;;;;;9.32;3.03;;;17.30;99.90;;;;;;5028323;28;20180;-84
2022/07/08 06:20:14;;;;;;;12.55;2.80;;;17.40;99.90;;;;;;5013093;28;20583;-83
2022/07/08 06:22:41;;;;;;;12.40;2.58;;;17.50;99.90;;;;;;5029175;28;20587;-82
2022/07/08 06:25:07;;;;;;;8.50;2.47;;;17.60;99.90;;;;;;5028763;28;20665;-80
2022/07/08 06:27:33;;;;;;;14.23;2.42;;;17.60;99.90;;;;;;5032486;28;20203;-84
2022/07/08 06:29:59;;;;;;;7.00;1.90;;;17.70;99.90;;;;;;5030262;28;20189;-88
2022/07/08 06:32:24;;;;;;;5.20;1.85;;;17.60;99.90;;;;;;5013958;28;20176;-89
2022/07/08 06:34:50;;;;;;;17.65;2.97;;;17.60;99.90;;;;;;5012671;28;20161;-88
2022/07/08 06:37:16;;;;;;;14.25;1.60;;;17.80;99.90;;;;;;5029371;28;20172;-88
2022/07/08 06:39:41;;;;;;;28.63;2.47;;;17.70;99.90;;;;;;5011850;28;20191;-87
2022/07/08 06:42:07;;;;;;;15.52;1.80;;;17.60;99.90;;;;;;5013347;28;20180;-83
2022/07/08 06:44:33;;;;;;;20.33;2.70;;;17.50;99.90;;;;;;5029029;28;20279;-86
2022/07/08 06:46:59;;;;;;;6.32;1.58;;;17.60;99.90;;;;;;5013844;28;20200;-83
2022/07/08 06:49:25;;;;;;;11.38;2.35;;;17.70;99.90;;;;;;5016186;28;20271;-84
2022/07/08 06:51:51;;;;;;;8.90;1.75;;;18.00;99.90;;;;;;5015138;28;20168;-81
2022/07/08 06:54:35;;;;;;;5.88;1.25;;;18.10;99.90;;;;;;5016041;28;20250;-82
2022/07/08 06:57:04;;;;;;;6.35;1.85;;;18.50;99.90;;;;;;5016333;28;20624;-83
2022/07/08 06:59:30;;;;;;;7.50;1.50;;;18.90;99.90;;;;;;5016755;28;20695;-81
2022/07/08 07:01:56;;;;;;;9.95;1.42;;;19.50;99.90;;;;;;5016253;28;20195;-81
2022/07/08 07:04:21;;;;;;;8.90;1.63;;;19.90;99.90;;;;;;5016026;28;20165;-82
2022/07/08 07:06:47;;;;;;;11.80;1.80;;;20.50;99.90;;;;;;5015940;28;20283;-82
2022/07/08 07:09:14;;;;;;;11.65;1.52;;;21.20;99.90;;;;;;5015239;28;20189;-87
2022/07/08 07:11:40;;;;;;;9.63;1.20;;;22.50;99.90;;;;;;5016728;28;20621;-86
2022/07/08 07:14:06;;;;;;;5.75;1.50;;;23.60;99.90;;;;;;5031572;28;20180;-81
2022/07/08 07:16:32;;;;;;;9.27;1.20;;;23.90;99.90;;;;;;5016436;28;20625;-82
2022/07/08 07:18:58;;;;;;;4.65;1.10;;;24.50;99.90;;;;;;5015169;28;20192;-83
2022/07/08 07:21:24;;;;;;;5.03;1.10;;;25.00;99.90;;;;;;5015956;28;20176;-81
2022/07/08 07:23:49;;;;;;;48.38;6.40;;;25.00;99.90;;;;;;5014868;28;20176;-81
2022/07/08 07:26:15;;;;;;;35.65;6.25;;;24.90;99.90;;;;;;5015756;28;20247;-80
2022/07/08 07:28:40;;;;;;;8.63;2.42;;;26.20;99.90;;;;;;5031155;28;20624;-85
2022/07/08 07:31:07;;;;;;;13.20;2.47;;;24.50;99.90;;;;;;5016524;28;20164;-82
2022/07/08 07:33:36;;;;;;;4.32;1.00;;;24.10;99.90;;;;;;5027065;28;20161;-84
2022/07/08 07:36:02;;;;;;;11.65;1.20;;;23.60;99.90;;;;;;5017862;28;20177;-82
2022/07/08 07:38:28;;;;;;;10.18;2.20;;;24.00;99.90;;;;;;5023850;28;20177;-82
2022/07/08 07:40:53;;;;;;;6.70;1.27;;;23.60;99.90;;;;;;5021059;28;20181;-83
2022/07/08 07:43:19;;;;;;;11.68;1.58;;;24.00;99.90;;;;;;5034854;28;20168;-88
2022/07/08 07:45:45;;;;;;;14.68;1.70;;;24.80;99.90;;;;;;5020417;28;20276;-87
2022/07/08 07:48:11;;;;;;;5.45;1.23;;;25.30;99.90;;;;;;5022187;28;20550;-85
2022/07/08 07:50:37;;;;;;;4.55;1.23;;;25.70;99.90;;;;;;5018253;28;20196;-89
2022/07/08 07:53:02;;;;;;;25.52;2.08;;;25.80;99.90;;;;;;5015329;28;20227;-84
2022/07/08 07:55:28;;;;;;;21.17;1.65;;;25.60;99.90;;;;;;5017178;28;20168;-83
2022/07/08 07:57:54;;;;;;;4.60;1.33;;;23.80;99.90;;;;;;5017359;28;20168;-84
2022/07/08 08:00:19;;;;;;;15.45;1.75;;;22.40;99.90;;;;;;5015027;28;20223;-83
2022/07/08 08:02:45;;;;;;;21.77;1.60;;;22.00;99.90;;;;;;5029800;28;20656;-82
2022/07/08 08:05:11;;;;;;;9.60;1.55;;;22.20;99.90;;;;;;5031877;28;20192;-82
2022/07/08 08:07:38;;;;;;;3.35;1.00;;;22.20;99.90;;;;;;5030552;28;20183;-84
2022/07/08 08:10:05;;;;;;;9.60;1.27;;;22.00;99.90;;;;;;5029989;28;20560;-83
2022/07/08 08:12:31;;;;;;;12.43;1.23;;;21.40;99.90;;;;;;5014304;28;20223;-83
2022/07/08 08:14:56;;;;;;;6.20;1.48;;;21.30;99.90;;;;;;5029562;28;20286;-82
2022/07/08 08:19:51;;;;;;;4.78;1.20;;;21.30;99.90;;;;;;5012877;28;20188;-82
2022/07/08 08:22:17;;;;;;;11.95;1.88;;;21.10;99.90;;;;;;5014507;28;20176;-82
2022/07/08 08:24:42;;;;;;;6.85;1.60;;;21.30;99.90;;;;;;5014597;28;20625;-81
2022/07/08 08:27:08;;;;;;;15.85;2.20;;;21.10;99.90;;;;;;5012957;28;20219;-82
2022/07/08 08:29:34;;;;;;;11.05;1.80;;;20.90;99.90;;;;;;5031488;28;20695;-81
2022/07/08 08:32:04;;;;;;;16.20;1.98;;;21.00;99.90;;;;;;5016861;28;20528;-80
2022/07/08 08:34:30;;;;;;;7.07;1.50;;;20.80;99.90;;;;;;5023580;28;20271;-82
2022/07/08 08:36:56;;;;;;;24.50;1.80;;;20.70;99.90;;;;;;5016135;28;20691;-81
2022/07/08 08:39:21;;;;;;;18.85;5.47;;;20.30;99.90;;;;;;5015584;28;20188;-80
2022/07/08 08:41:47;;;;;;;9.23;1.80;;;20.30;99.90;;;;;;5015180;28;20220;-81
2022/07/08 08:44:12;;;;;;;6.63;1.52;;;20.50;99.90;;;;;;5017069;28;20241;-81
2022/07/08 08:46:40;;;;;;;7.57;1.10;;;20.50;99.90;;;;;;5034569;28;20307;-82
2022/07/08 08:49:08;;;;;;;4.35;1.35;;;20.80;99.90;;;;;;5019592;28;20197;-82
2022/07/08 08:51:34;;;;;;;7.60;1.50;;;20.80;99.90;;;;;;5013271;28;20265;-81
2022/07/08 08:54:03;;;;;;;8.40;1.23;;;20.60;99.90;;;;;;5029527;28;20579;-82
2022/07/08 08:56:29;;;;;;;5.10;1.05;;;20.90;99.90;;;;;;5016347;28;20169;-82
2022/07/08 08:58:57;;;;;;;8.20;1.38;;;21.20;99.90;;;;;;5008224;28;20188;-81
2022/07/08 09:01:22;;;;;;;5.82;1.55;;;21.10;99.90;;;;;;5012699;28;20202;-79
2022/07/08 09:03:48;;;;;;;5.10;1.90;;;21.00;99.90;;;;;;5014378;28;20247;-78
2022/07/08 09:06:14;;;;;;;4.75;1.20;;;21.00;99.90;;;;;;5014795;28;20208;-83
2022/07/08 09:08:40;;;;;;;7.38;1.48;;;20.90;99.90;;;;;;5015447;28;20185;-83
2022/07/08 09:11:06;;;;;;;6.22;1.58;;;20.50;99.90;;;;;;5012903;28;20251;-84
2022/07/08 09:13:33;;;;;;;4.88;1.20;;;20.60;99.90;;;;;;5014706;28;20190;-82
2022/07/08 09:16:00;;;;;;;7.53;1.65;;;20.80;99.90;;;;;;5017495;28;20185;-79
2022/07/08 09:18:38;;;;;;;14.02;2.65;;;21.10;99.90;;;;;;5014416;28;20238;-79
2022/07/08 09:21:04;;;;;;;10.07;1.83;;;21.30;99.90;;;;;;5014374;28;20195;-79
2022/07/08 09:23:32;;;;;;;6.15;1.67;;;21.70;99.90;;;;;;5013182;28;20197;-80
2022/07/08 09:26:03;;;;;;;10.82;1.90;;;21.60;99.90;;;;;;5033135;28;20274;-82
2022/07/08 09:28:37;;;;;;;6.72;1.77;;;21.80;99.90;;;;;;5013955;28;20165;-82
2022/07/08 09:31:15;;;;;;;10.63;1.27;;;21.80;99.90;;;;;;5013850;28;20267;-82
2022/07/08 09:33:42;;;;;;;14.05;1.75;;;22.00;99.90;;;;;;5013532;28;20168;-83
2022/07/08 09:36:09;;;;;;;11.85;2.08;;;22.20;99.90;;;;;;5013773;28;20235;-83
2022/07/08 09:38:37;;;;;;;10.23;2.22;;;22.40;99.90;;;;;;5014607;28;20157;-82
2022/07/08 09:41:07;;;;;;;12.68;1.85;;;22.10;99.90;;;;;;5028692;28;20173;-83
2022/07/08 09:43:41;;;;;;;4.10;1.60;;;22.30;99.90;;;;;;5027386;28;20641;-83
2022/07/08 09:46:07;;;;;;;9.18;1.60;;;22.30;99.90;;;;;;5011614;28;20204;-82
2022/07/08 09:48:34;;;;;;;5.43;1.88;;;22.60;99.90;;;;;;5012773;28;20216;-83
2022/07/08 09:51:07;;;;;;;7.18;2.08;;;22.20;99.90;;;;;;5028840;28;20165;-81
2022/07/08 09:53:33;;;;;;;6.38;2.10;;;22.20;99.90;;;;;;5028334;28;20275;-82
2022/07/08 09:55:59;;;;;;;9.15;1.38;;;22.30;99.90;;;;;;5027707;28;20252;-82
2022/07/08 09:58:28;;;;;;;12.73;1.85;;;22.50;99.90;;;;;;5028040;28;20172;-82
2022/07/08 10:00:55;;;;;;;7.03;1.58;;;22.50;99.90;;;;;;5011284;28;20255;-81
2022/07/08 10:03:23;;;;;;;6.20;2.45;;;22.50;99.90;;;;;;5012663;28;20199;-82
2022/07/08 10:05:49;;;;;;;5.82;1.70;;;22.20;99.90;;;;;;5027831;28;20216;-82
2022/07/08 10:08:16;;;;;;;11.02;2.10;;;22.20;99.90;;;;;;5012833;28;20196;-84
2022/07/08 10:10:45;;;;;;;8.00;2.03;;;22.50;99.90;;;;;;5027808;28;20196;-84
2022/07/08 10:13:11;;;;;;;7.40;1.90;;;22.60;99.90;;;;;;5013015;28;20180;-83
2022/07/08 10:15:38;;;;;;;7.85;1.98;;;22.40;99.90;;;;;;5029587;28;20195;-83
2022/07/08 10:18:15;;;;;;;3.67;1.38;;;22.20;99.90;;;;;;5028829;28;20172;-83
2022/07/08 10:20:46;;;;;;;5.25;1.70;;;22.20;99.90;;;;;;5013074;28;20196;-80
2022/07/08 10:23:22;;;;;;;9.63;1.95;;;22.50;99.90;;;;;;5014256;28;20175;-81
2022/07/08 10:25:49;;;;;;;3.05;1.65;;;22.40;99.90;;;;;;5014915;28;20207;-81
2022/07/08 10:28:14;;;;;;;4.70;1.58;;;22.40;99.90;;;;;;5015833;28;20223;-80
2022/07/08 10:30:46;;;;;;;7.60;1.75;;;22.50;99.90;;;;;;5014551;28;20199;-81
2022/07/08 10:33:18;;;;;;;3.10;1.83;;;22.80;99.90;;;;;;5016217;28;20653;-80
2022/07/08 10:36:04;;;;;;;2.65;1.23;;;22.60;99.90;;;;;;5032355;28;20199;-79
2022/07/08 10:38:33;;;;;;;6.35;1.73;;;22.80;99.90;;;;;;5017435;28;20226;-79
2022/07/08 10:41:25;;;;;;;9.90;2.40;;;23.10;99.90;;;;;;5033850;28;20179;-80
2022/07/08 10:43:51;;;;;;;10.68;2.65;;;23.00;99.90;;;;;;5007845;28;20783;-80
2022/07/08 10:46:18;;;;;;;8.85;1.90;;;23.10;99.90;;;;;;5031428;28;20208;-79
2022/07/08 10:49:10;;;;;;;7.93;1.90;;;23.30;99.90;;;;;;5016494;28;20246;-81
2022/07/08 10:51:37;;;;;;;3.10;1.60;;;23.40;99.90;;;;;;5015278;28;20521;-79
2022/07/08 10:54:06;;;;;;;6.65;1.35;;;23.50;99.90;;;;;;5016423;28;20180;-79
2022/07/08 10:56:48;;;;;;;9.15;1.48;;;23.50;99.90;;;;;;5015655;28;20164;-79
2022/07/08 10:59:27;;;;;;;10.85;1.90;;;23.50;99.90;;;;;;5016403;28;20208;-80
2022/07/08 11:01:59;;;;;;;1.90;1.35;;;23.40;99.90;;;;;;5023821;28;20244;-79
2022/07/08 11:04:36;;;;;;;5.38;1.52;;;23.50;99.90;;;;;;5053276;28;20173;-79
2022/07/08 11:07:22;;;;;;;2.20;1.27;;;23.60;99.90;;;;;;5023939;28;20220;-79
2022/07/08 11:09:55;;;;;;;8.45;2.45;;;23.40;99.90;;;;;;5016887;28;20656;-82
2022/07/08 11:12:26;;;;;;;10.00;1.95;;;22.70;99.90;;;;;;5031096;28;20173;-83
2022/07/08 11:14:54;;;;;;;3.60;1.42;;;22.80;99.90;;;;;;5015760;28;20259;-80
2022/07/08 11:17:25;;;;;;;8.65;1.75;;;23.20;99.90;;;;;;5031260;28;20226;-81
2022/07/08 11:19:53;;;;;;;8.23;1.75;;;23.40;99.90;;;;;;5015472;28;20188;-84
2022/07/08 11:22:25;;;;;;;4.45;1.52;;;23.50;99.90;;;;;;5030661;28;20513;-81
2022/07/08 11:24:51;;;;;;;4.30;1.75;;;23.50;99.90;;;;;;5030616;28;20181;-80
2022/07/08 11:27:26;;;;;;;5.78;1.75;;;23.10;99.90;;;;;;5015988;28;20200;-81
2022/07/08 11:29:54;;;;;;;4.38;1.40;;;23.30;99.90;;;;;;5015007;28;20719;-82
2022/07/08 11:32:21;;;;;;;3.67;1.23;;;23.30;99.90;;;;;;5030432;28;20216;-81
2022/07/08 11:34:48;;;;;;;16.73;1.80;;;23.60;99.90;;;;;;5014850;28;20165;-81
2022/07/08 11:37:14;;;;;;;6.32;1.50;;;23.70;99.90;;;;;;5015231;28;20173;-81
2022/07/08 11:39:41;;;;;;;13.10;1.90;;;23.40;99.90;;;;;;5015999;28;20180;-82
2022/07/08 11:42:08;;;;;;;11.18;2.03;;;23.30;99.90;;;;;;5032799;28;20175;-81
2022/07/08 11:44:33;;;;;;;4.13;1.42;;;23.20;99.90;;;;;;5013943;28;20535;-84
2022/07/08 11:46:59;;;;;;;4.80;1.58;;;23.30;99.90;;;;;;5029852;28;20204;-80
2022/07/08 11:49:25;;;;;;;5.88;1.58;;;23.50;99.90;;;;;;5014846;28;20552;-80
2022/07/08 11:51:55;;;;;;;3.28;1.13;;;23.80;99.90;;;;;;5014660;28;20641;-85
2022/07/08 11:54:26;;;;;;;11.43;2.05;;;23.70;99.90;;;;;;5015116;28;20207;-81
2022/07/08 11:56:56;;;;;;;12.48;3.60;;;23.60;99.90;;;;;;5015114;28;20208;-83
2022/07/08 11:59:23;;;;;;;2.17;1.15;;;23.70;99.90;;;;;;5015082;28;20208;-84
2022/07/08 12:01:51;;;;;;;3.25;1.20;;;23.60;99.90;;;;;;5015457;28;20318;-84
2022/07/08 12:04:18;;;;;;;3.03;1.42;;;23.70;99.90;;;;;;5014306;28;20641;-86
2022/07/08 12:06:52;;;;;;;11.07;1.60;;;23.70;99.90;;;;;;5014869;28;20208;-80
2022/07/08 12:09:20;;;;;;;4.18;1.42;;;23.70;99.90;;;;;;5014969;28;20191;-80
2022/07/08 12:11:51;;;;;;;7.68;1.45;;;23.70;99.90;;;;;;5014618;28;20217;-80
2022/07/08 12:14:17;;;;;;;9.30;1.65;;;23.90;99.90;;;;;;5015928;28;20525;-79
2022/07/08 12:16:44;;;;;;;3.88;1.35;;;23.90;99.90;;;;;;5016071;28;20164;-87
2022/07/08 12:19:36;;;;;;;14.70;1.42;;;24.10;99.90;;;;;;5016006;28;20643;-80
2022/07/08 12:22:07;;;;;;;3.22;1.15;;;24.20;99.90;;;;;;5015372;28;20263;-84
2022/07/08 12:24:35;;;;;;;4.93;1.23;;;24.30;99.90;;;;;;5016776;28;20164;-83
2022/07/08 12:27:07;;;;;;;8.18;1.33;;;24.10;99.90;;;;;;5016863;28;20235;-84
2022/07/08 12:29:38;;;;;;;3.78;1.42;;;24.30;99.90;;;;;;5018385;28;20185;-86
2022/07/08 12:32:05;;;;;;;6.07;1.23;;;24.50;99.90;;;;;;5016873;28;20169;-82
2022/07/08 12:34:31;;;;;;;10.60;1.45;;;24.70;99.90;;;;;;5016904;28;20161;-84
2022/07/08 12:37:17;;;;;;;1.73;0.90;;;24.40;99.90;;;;;;5016820;28;20597;-84
2022/07/08 12:39:43;;;;;;;10.27;1.15;;;24.50;99.90;;;;;;5016308;28;20192;-82
2022/07/08 12:42:09;;;;;;;9.00;1.23;;;24.40;99.90;;;;;;5015278;28;20165;-85
2022/07/08 12:44:36;;;;;;;4.85;0.90;;;24.40;99.90;;;;;;5014835;28;20153;-85
2022/07/08 12:47:04;;;;;;;7.35;1.20;;;24.50;99.90;;;;;;5013101;28;20576;-84
2022/07/08 12:49:31;;;;;;;5.20;1.30;;;24.50;99.90;;;;;;5014951;28;20667;-88